sensor_id;sensor_type;location;lat;lon;timestamp;P1;durP1;ratioP1;P2;durP2;ratioP2
2656;SDS011;1338;48.176;11.792;2023-04-03T00:01:12;10.30;;;8.67;;
2656;SDS011;1338;48.176;11.792;2023-04-03T00:03:41;9.50;;;8.40;;
2656;SDS011;1338;48.176;11.792;2023-04-03T00:06:09;8.60;;;7.73;;
2656;SDS011;1338;48.176;11.792;2023-04-03T00:08:39;8.80;;;7.90;;
2656;SDS011;1338;48.176;11.792;2023-04-03T00:11:08;8.20;;;7.40;;
2656;SDS011;1338;48.176;11.792;2023-04-03T00:13:37;8.20;;;7.40;;
2656;SDS011;1338;48.176;11.792;2023-04-03T00:16:07;9.43;;;8.10;;
2656;SDS011;1338;48.176;11.792;2023-04-03T00:18:36;8.60;;;7.80;;
2656;SDS011;1338;48.176;11.792;2023-04-03T00:21:05;9.47;;;8.57;;
2656;SDS011;1338;48.176;11.792;2023-04-03T00:23:34;9.53;;;8.53;;
2656;SDS011;1338;48.176;11.792;2023-04-03T00:26:02;10.10;;;8.33;;
2656;SDS011;1338;48.176;11.792;2023-04-03T00:28:31;8.97;;;8.07;;
2656;SDS011;1338;48.176;11.792;2023-04-03T00:30:59;8.53;;;7.73;;
2656;SDS011;1338;48.176;11.792;2023-04-03T00:33:28;9.03;;;8.23;;
2656;SDS011;1338;48.176;11.792;2023-04-03T00:35:56;13.50;;;9.20;;
2656;SDS011;1338;48.176;11.792;2023-04-03T00:38:24;8.30;;;7.60;;
2656;SDS011;1338;48.176;11.792;2023-04-03T00:40:52;8.20;;;7.40;;
2656;SDS011;1338;48.176;11.792;2023-04-03T00:43:21;9.67;;;8.67;;
2656;SDS011;1338;48.176;11.792;2023-04-03T00:45:51;10.50;;;8.67;;
2656;SDS011;1338;48.176;11.792;2023-04-03T00:48:20;8.83;;;7.83;;
2656;SDS011;1338;48.176;11.792;2023-04-03T00:50:52;11.13;;;8.60;;
2656;SDS011;1338;48.176;11.792;2023-04-03T00:53:21;9.33;;;8.33;;
2656;SDS011;1338;48.176;11.792;2023-04-03T00:55:53;8.40;;;7.50;;
2656;SDS011;1338;48.176;11.792;2023-04-03T00:58:24;9.07;;;7.77;;
2656;SDS011;1338;48.176;11.792;2023-04-03T01:00:59;8.83;;;7.93;;
2656;SDS011;1338;48.176;11.792;2023-04-03T01:03:34;8.40;;;7.60;;
2656;SDS011;1338;48.176;11.792;2023-04-03T01:06:05;9.20;;;8.07;;
2656;SDS011;1338;48.176;11.792;2023-04-03T01:08:34;9.07;;;8.17;;
2656;SDS011;1338;48.176;11.792;2023-04-03T01:11:03;10.00;;;9.00;;
2656;SDS011;1338;48.176;11.792;2023-04-03T01:13:32;9.17;;;8.33;;
2656;SDS011;1338;48.176;11.792;2023-04-03T01:16:05;10.57;;;8.77;;
2656;SDS011;1338;48.176;11.792;2023-04-03T01:18:34;9.57;;;8.70;;
2656;SDS011;1338;48.176;11.792;2023-04-03T01:24:10;9.17;;;8.27;;
2656;SDS011;1338;48.176;11.792;2023-04-03T01:26:53;9.67;;;8.67;;
2656;SDS011;1338;48.176;11.792;2023-04-03T01:29:21;8.53;;;7.60;;
2656;SDS011;1338;48.176;11.792;2023-04-03T01:31:52;10.30;;;9.10;;
2656;SDS011;1338;48.176;11.792;2023-04-03T01:34:21;11.37;;;8.90;;
2656;SDS011;1338;48.176;11.792;2023-04-03T01:36:50;9.53;;;8.43;;
2656;SDS011;1338;48.176;11.792;2023-04-03T01:39:20;8.63;;;7.93;;
2656;SDS011;1338;48.176;11.792;2023-04-03T01:41:49;9.40;;;8.50;;
2656;SDS011;1338;48.176;11.792;2023-04-03T01:44:24;8.97;;;8.10;;
2656;SDS011;1338;48.176;11.792;2023-04-03T01:46:53;10.67;;;8.10;;
2656;SDS011;1338;48.176;11.792;2023-04-03T01:49:23;8.30;;;7.40;;
2656;SDS011;1338;48.176;11.792;2023-04-03T01:51:51;11.47;;;8.30;;
2656;SDS011;1338;48.176;11.792;2023-04-03T01:54:19;8.97;;;8.07;;
2656;SDS011;1338;48.176;11.792;2023-04-03T01:56:47;8.50;;;7.70;;
2656;SDS011;1338;48.176;11.792;2023-04-03T01:59:17;8.80;;;7.90;;
2656;SDS011;1338;48.176;11.792;2023-04-03T02:01:45;9.07;;;7.93;;
2656;SDS011;1338;48.176;11.792;2023-04-03T02:04:15;8.57;;;7.67;;
2656;SDS011;1338;48.176;11.792;2023-04-03T02:06:43;7.57;;;6.80;;
2656;SDS011;1338;48.176;11.792;2023-04-03T02:09:11;7.20;;;6.50;;
2656;SDS011;1338;48.176;11.792;2023-04-03T02:11:40;8.33;;;7.53;;
2656;SDS011;1338;48.176;11.792;2023-04-03T02:14:08;9.00;;;8.07;;
2656;SDS011;1338;48.176;11.792;2023-04-03T02:16:36;8.83;;;8.00;;
2656;SDS011;1338;48.176;11.792;2023-04-03T02:19:05;8.90;;;7.90;;
2656;SDS011;1338;48.176;11.792;2023-04-03T02:21:34;9.07;;;8.17;;
2656;SDS011;1338;48.176;11.792;2023-04-03T02:24:02;8.80;;;7.90;;
2656;SDS011;1338;48.176;11.792;2023-04-03T02:26:31;7.93;;;7.13;;
2656;SDS011;1338;48.176;11.792;2023-04-03T02:28:59;7.63;;;6.83;;
2656;SDS011;1338;48.176;11.792;2023-04-03T02:31:27;8.80;;;7.90;;
2656;SDS011;1338;48.176;11.792;2023-04-03T02:33:57;7.87;;;7.10;;
2656;SDS011;1338;48.176;11.792;2023-04-03T02:36:25;7.90;;;7.17;;
2656;SDS011;1338;48.176;11.792;2023-04-03T02:38:58;8.60;;;7.87;;
2656;SDS011;1338;48.176;11.792;2023-04-03T02:41:27;7.40;;;6.67;;
2656;SDS011;1338;48.176;11.792;2023-04-03T02:44:03;9.40;;;7.30;;
2656;SDS011;1338;48.176;11.792;2023-04-03T02:46:33;7.23;;;6.57;;
2656;SDS011;1338;48.176;11.792;2023-04-03T02:49:02;7.17;;;6.53;;
2656;SDS011;1338;48.176;11.792;2023-04-03T02:51:30;7.70;;;7.00;;
2656;SDS011;1338;48.176;11.792;2023-04-03T02:54:00;7.90;;;7.17;;
2656;SDS011;1338;48.176;11.792;2023-04-03T02:56:31;6.70;;;6.10;;
2656;SDS011;1338;48.176;11.792;2023-04-03T02:58:59;7.20;;;6.60;;
2656;SDS011;1338;48.176;11.792;2023-04-03T03:01:28;6.17;;;5.67;;
2656;SDS011;1338;48.176;11.792;2023-04-03T03:03:58;7.13;;;6.53;;
2656;SDS011;1338;48.176;11.792;2023-04-03T03:06:27;6.30;;;5.70;;
2656;SDS011;1338;48.176;11.792;2023-04-03T03:08:55;6.50;;;5.90;;
2656;SDS011;1338;48.176;11.792;2023-04-03T03:11:25;7.13;;;6.43;;
2656;SDS011;1338;48.176;11.792;2023-04-03T03:13:53;7.07;;;5.90;;
2656;SDS011;1338;48.176;11.792;2023-04-03T03:16:24;6.23;;;5.73;;
2656;SDS011;1338;48.176;11.792;2023-04-03T03:18:52;6.90;;;6.30;;
2656;SDS011;1338;48.176;11.792;2023-04-03T03:21:21;6.63;;;5.90;;
2656;SDS011;1338;48.176;11.792;2023-04-03T03:23:49;6.20;;;5.50;;
2656;SDS011;1338;48.176;11.792;2023-04-03T03:26:17;6.03;;;5.43;;
2656;SDS011;1338;48.176;11.792;2023-04-03T03:28:47;6.17;;;5.67;;
2656;SDS011;1338;48.176;11.792;2023-04-03T03:31:15;5.87;;;5.37;;
2656;SDS011;1338;48.176;11.792;2023-04-03T03:33:43;6.27;;;5.77;;
2656;SDS011;1338;48.176;11.792;2023-04-03T03:36:11;5.87;;;5.27;;
2656;SDS011;1338;48.176;11.792;2023-04-03T03:38:40;6.83;;;6.20;;
2656;SDS011;1338;48.176;11.792;2023-04-03T03:41:08;5.70;;;5.10;;
2656;SDS011;1338;48.176;11.792;2023-04-03T03:43:37;5.93;;;5.37;;
2656;SDS011;1338;48.176;11.792;2023-04-03T03:46:08;7.90;;;7.10;;
2656;SDS011;1338;48.176;11.792;2023-04-03T03:48:36;6.60;;;6.00;;
2656;SDS011;1338;48.176;11.792;2023-04-03T03:51:04;6.10;;;5.50;;
2656;SDS011;1338;48.176;11.792;2023-04-03T03:53:35;6.83;;;6.23;;
2656;SDS011;1338;48.176;11.792;2023-04-03T03:56:07;6.97;;;6.23;;
2656;SDS011;1338;48.176;11.792;2023-04-03T03:58:37;7.10;;;6.40;;
2656;SDS011;1338;48.176;11.792;2023-04-03T04:01:07;6.83;;;6.20;;
2656;SDS011;1338;48.176;11.792;2023-04-03T04:03:41;7.10;;;6.40;;
2656;SDS011;1338;48.176;11.792;2023-04-03T04:06:12;6.40;;;5.87;;
2656;SDS011;1338;48.176;11.792;2023-04-03T04:08:41;6.40;;;5.90;;
2656;SDS011;1338;48.176;11.792;2023-04-03T04:11:11;7.47;;;6.77;;
2656;SDS011;1338;48.176;11.792;2023-04-03T04:13:40;6.40;;;5.80;;
2656;SDS011;1338;48.176;11.792;2023-04-03T04:16:12;7.73;;;6.00;;
2656;SDS011;1338;48.176;11.792;2023-04-03T04:18:40;7.00;;;6.40;;
2656;SDS011;1338;48.176;11.792;2023-04-03T04:21:08;6.60;;;6.03;;
2656;SDS011;1338;48.176;11.792;2023-04-03T04:23:37;6.80;;;6.10;;
2656;SDS011;1338;48.176;11.792;2023-04-03T04:26:06;6.90;;;6.30;;
2656;SDS011;1338;48.176;11.792;2023-04-03T04:28:36;6.27;;;5.70;;
2656;SDS011;1338;48.176;11.792;2023-04-03T04:31:05;6.30;;;5.80;;
2656;SDS011;1338;48.176;11.792;2023-04-03T04:33:36;7.40;;;6.70;;
2656;SDS011;1338;48.176;11.792;2023-04-03T04:36:06;7.30;;;6.60;;
2656;SDS011;1338;48.176;11.792;2023-04-03T04:38:35;7.00;;;6.40;;
2656;SDS011;1338;48.176;11.792;2023-04-03T04:41:05;6.80;;;6.20;;
2656;SDS011;1338;48.176;11.792;2023-04-03T04:43:33;6.13;;;5.57;;
2656;SDS011;1338;48.176;11.792;2023-04-03T04:46:02;7.00;;;6.40;;
2656;SDS011;1338;48.176;11.792;2023-04-03T04:48:37;6.10;;;5.50;;
2656;SDS011;1338;48.176;11.792;2023-04-03T04:51:06;7.83;;;6.30;;
2656;SDS011;1338;48.176;11.792;2023-04-03T04:53:36;7.43;;;6.73;;
2656;SDS011;1338;48.176;11.792;2023-04-03T04:56:06;6.60;;;6.00;;
2656;SDS011;1338;48.176;11.792;2023-04-03T04:58:36;6.83;;;5.83;;
2656;SDS011;1338;48.176;11.792;2023-04-03T05:01:07;7.00;;;6.40;;
2656;SDS011;1338;48.176;11.792;2023-04-03T05:03:44;6.93;;;6.23;;
2656;SDS011;1338;48.176;11.792;2023-04-03T05:06:15;7.00;;;6.40;;
2656;SDS011;1338;48.176;11.792;2023-04-03T05:08:43;6.60;;;6.07;;
2656;SDS011;1338;48.176;11.792;2023-04-03T05:11:11;6.57;;;6.00;;
2656;SDS011;1338;48.176;11.792;2023-04-03T05:13:40;6.23;;;5.63;;
2656;SDS011;1338;48.176;11.792;2023-04-03T05:16:08;6.40;;;5.80;;
2656;SDS011;1338;48.176;11.792;2023-04-03T05:18:37;6.67;;;5.90;;
2656;SDS011;1338;48.176;11.792;2023-04-03T05:21:10;6.23;;;5.50;;
2656;SDS011;1338;48.176;11.792;2023-04-03T05:23:39;6.60;;;5.97;;
2656;SDS011;1338;48.176;11.792;2023-04-03T05:26:08;6.80;;;6.20;;
2656;SDS011;1338;48.176;11.792;2023-04-03T05:28:37;6.53;;;5.93;;
2656;SDS011;1338;48.176;11.792;2023-04-03T05:31:06;6.00;;;5.50;;
2656;SDS011;1338;48.176;11.792;2023-04-03T05:33:35;6.37;;;5.77;;
2656;SDS011;1338;48.176;11.792;2023-04-03T05:36:06;6.63;;;5.80;;
2656;SDS011;1338;48.176;11.792;2023-04-03T05:38:42;6.50;;;5.90;;
2656;SDS011;1338;48.176;11.792;2023-04-03T05:41:10;6.63;;;6.00;;
2656;SDS011;1338;48.176;11.792;2023-04-03T05:43:39;6.47;;;5.97;;
2656;SDS011;1338;48.176;11.792;2023-04-03T05:46:09;6.10;;;5.60;;
2656;SDS011;1338;48.176;11.792;2023-04-03T05:48:41;9.43;;;6.33;;
2656;SDS011;1338;48.176;11.792;2023-04-03T05:51:14;6.67;;;6.07;;
2656;SDS011;1338;48.176;11.792;2023-04-03T05:53:47;6.03;;;5.53;;
2656;SDS011;1338;48.176;11.792;2023-04-03T05:56:15;6.97;;;6.37;;
2656;SDS011;1338;48.176;11.792;2023-04-03T05:58:43;9.30;;;5.87;;
2656;SDS011;1338;48.176;11.792;2023-04-03T06:01:11;7.70;;;7.00;;
2656;SDS011;1338;48.176;11.792;2023-04-03T06:03:39;6.40;;;5.80;;
2656;SDS011;1338;48.176;11.792;2023-04-03T06:06:10;6.70;;;6.10;;
2656;SDS011;1338;48.176;11.792;2023-04-03T06:08:40;6.00;;;5.50;;
2656;SDS011;1338;48.176;11.792;2023-04-03T06:11:12;6.70;;;6.10;;
2656;SDS011;1338;48.176;11.792;2023-04-03T06:13:40;8.20;;;6.33;;
2656;SDS011;1338;48.176;11.792;2023-04-03T06:16:08;8.60;;;6.63;;
2656;SDS011;1338;48.176;11.792;2023-04-03T06:18:40;7.13;;;6.17;;
2656;SDS011;1338;48.176;11.792;2023-04-03T06:21:08;6.83;;;6.20;;
2656;SDS011;1338;48.176;11.792;2023-04-03T06:23:37;7.17;;;6.47;;
2656;SDS011;1338;48.176;11.792;2023-04-03T06:26:05;7.43;;;6.67;;
2656;SDS011;1338;48.176;11.792;2023-04-03T06:28:34;7.20;;;6.60;;
2656;SDS011;1338;48.176;11.792;2023-04-03T06:31:02;5.90;;;5.30;;
2656;SDS011;1338;48.176;11.792;2023-04-03T06:33:31;6.97;;;6.37;;
2656;SDS011;1338;48.176;11.792;2023-04-03T06:35:59;7.57;;;6.73;;
2656;SDS011;1338;48.176;11.792;2023-04-03T06:38:30;6.93;;;5.73;;
2656;SDS011;1338;48.176;11.792;2023-04-03T06:40:58;7.07;;;6.43;;
2656;SDS011;1338;48.176;11.792;2023-04-03T06:43:26;7.17;;;6.47;;
2656;SDS011;1338;48.176;11.792;2023-04-03T06:45:56;6.70;;;6.10;;
2656;SDS011;1338;48.176;11.792;2023-04-03T06:48:24;7.13;;;6.43;;
2656;SDS011;1338;48.176;11.792;2023-04-03T06:50:52;7.13;;;6.43;;
2656;SDS011;1338;48.176;11.792;2023-04-03T06:53:21;6.57;;;5.97;;
2656;SDS011;1338;48.176;11.792;2023-04-03T06:55:49;6.30;;;5.80;;
2656;SDS011;1338;48.176;11.792;2023-04-03T06:58:17;6.60;;;6.00;;
2656;SDS011;1338;48.176;11.792;2023-04-03T07:00:48;7.67;;;6.97;;
2656;SDS011;1338;48.176;11.792;2023-04-03T07:03:17;6.83;;;6.23;;
2656;SDS011;1338;48.176;11.792;2023-04-03T07:05:46;7.03;;;6.43;;
2656;SDS011;1338;48.176;11.792;2023-04-03T07:08:14;7.17;;;6.47;;
2656;SDS011;1338;48.176;11.792;2023-04-03T07:10:42;6.90;;;6.20;;
2656;SDS011;1338;48.176;11.792;2023-04-03T07:13:10;6.63;;;5.70;;
2656;SDS011;1338;48.176;11.792;2023-04-03T07:15:38;8.00;;;7.20;;
2656;SDS011;1338;48.176;11.792;2023-04-03T07:18:06;9.50;;;6.90;;
2656;SDS011;1338;48.176;11.792;2023-04-03T07:20:36;7.67;;;6.87;;
2656;SDS011;1338;48.176;11.792;2023-04-03T07:23:04;7.30;;;6.60;;
2656;SDS011;1338;48.176;11.792;2023-04-03T07:25:32;8.63;;;7.40;;
2656;SDS011;1338;48.176;11.792;2023-04-03T07:28:00;9.20;;;7.00;;
2656;SDS011;1338;48.176;11.792;2023-04-03T07:30:29;9.00;;;7.43;;
2656;SDS011;1338;48.176;11.792;2023-04-03T07:32:58;6.60;;;6.00;;
2656;SDS011;1338;48.176;11.792;2023-04-03T07:35:26;8.10;;;7.30;;
2656;SDS011;1338;48.176;11.792;2023-04-03T07:37:55;8.43;;;7.03;;
2656;SDS011;1338;48.176;11.792;2023-04-03T07:40:23;7.63;;;6.93;;
2656;SDS011;1338;48.176;11.792;2023-04-03T07:42:52;10.17;;;7.07;;
2656;SDS011;1338;48.176;11.792;2023-04-03T07:45:21;7.77;;;6.97;;
2656;SDS011;1338;48.176;11.792;2023-04-03T07:47:50;8.93;;;7.90;;
2656;SDS011;1338;48.176;11.792;2023-04-03T07:50:18;7.90;;;7.03;;
2656;SDS011;1338;48.176;11.792;2023-04-03T07:52:46;7.97;;;6.77;;
2656;SDS011;1338;48.176;11.792;2023-04-03T07:55:16;7.90;;;7.10;;
2656;SDS011;1338;48.176;11.792;2023-04-03T07:57:44;10.80;;;8.53;;
2656;SDS011;1338;48.176;11.792;2023-04-03T08:00:13;11.03;;;8.77;;
2656;SDS011;1338;48.176;11.792;2023-04-03T08:02:43;8.63;;;7.33;;
2656;SDS011;1338;48.176;11.792;2023-04-03T08:05:16;9.33;;;8.43;;
2656;SDS011;1338;48.176;11.792;2023-04-03T08:07:45;7.73;;;7.00;;
2656;SDS011;1338;48.176;11.792;2023-04-03T08:10:15;8.60;;;7.80;;
2656;SDS011;1338;48.176;11.792;2023-04-03T08:12:45;10.70;;;9.70;;
2656;SDS011;1338;48.176;11.792;2023-04-03T08:15:13;8.40;;;7.60;;
2656;SDS011;1338;48.176;11.792;2023-04-03T08:17:43;8.93;;;8.07;;
2656;SDS011;1338;48.176;11.792;2023-04-03T08:20:11;8.60;;;7.80;;
2656;SDS011;1338;48.176;11.792;2023-04-03T08:22:39;7.53;;;6.73;;
2656;SDS011;1338;48.176;11.792;2023-04-03T08:25:08;8.90;;;8.00;;
2656;SDS011;1338;48.176;11.792;2023-04-03T08:27:38;8.00;;;7.30;;
2656;SDS011;1338;48.176;11.792;2023-04-03T08:30:06;10.50;;;8.40;;
2656;SDS011;1338;48.176;11.792;2023-04-03T08:32:36;8.50;;;7.10;;
2656;SDS011;1338;48.176;11.792;2023-04-03T08:35:04;6.50;;;5.93;;
2656;SDS011;1338;48.176;11.792;2023-04-03T08:37:34;7.37;;;6.77;;
2656;SDS011;1338;48.176;11.792;2023-04-03T08:40:02;7.50;;;6.90;;
2656;SDS011;1338;48.176;11.792;2023-04-03T08:42:36;9.00;;;7.00;;
2656;SDS011;1338;48.176;11.792;2023-04-03T08:45:12;9.77;;;8.20;;
2656;SDS011;1338;48.176;11.792;2023-04-03T08:47:44;9.50;;;7.80;;
2656;SDS011;1338;48.176;11.792;2023-04-03T08:50:22;8.13;;;7.40;;
2656;SDS011;1338;48.176;11.792;2023-04-03T08:52:56;7.33;;;6.63;;
2656;SDS011;1338;48.176;11.792;2023-04-03T08:55:26;7.80;;;7.20;;
2656;SDS011;1338;48.176;11.792;2023-04-03T08:57:59;7.07;;;6.57;;
2656;SDS011;1338;48.176;11.792;2023-04-03T09:00:41;8.00;;;7.20;;
2656;SDS011;1338;48.176;11.792;2023-04-03T09:03:13;7.00;;;6.40;;
2656;SDS011;1338;48.176;11.792;2023-04-03T09:05:45;7.60;;;6.90;;
2656;SDS011;1338;48.176;11.792;2023-04-03T09:08:23;8.27;;;7.57;;
2656;SDS011;1338;48.176;11.792;2023-04-03T09:10:58;8.77;;;7.97;;
2656;SDS011;1338;48.176;11.792;2023-04-03T09:13:36;8.77;;;8.00;;
2656;SDS011;1338;48.176;11.792;2023-04-03T09:16:16;8.30;;;7.60;;
2656;SDS011;1338;48.176;11.792;2023-04-03T09:18:57;7.77;;;7.07;;
2656;SDS011;1338;48.176;11.792;2023-04-03T09:21:34;7.27;;;6.60;;
2656;SDS011;1338;48.176;11.792;2023-04-03T09:24:09;9.80;;;8.17;;
2656;SDS011;1338;48.176;11.792;2023-04-03T09:26:41;8.53;;;7.30;;
2656;SDS011;1338;48.176;11.792;2023-04-03T09:29:15;7.80;;;7.10;;
2656;SDS011;1338;48.176;11.792;2023-04-03T09:31:47;7.07;;;6.47;;
2656;SDS011;1338;48.176;11.792;2023-04-03T09:34:18;9.20;;;7.20;;
2656;SDS011;1338;48.176;11.792;2023-04-03T09:36:51;7.60;;;6.80;;
2656;SDS011;1338;48.176;11.792;2023-04-03T09:39:20;8.87;;;7.43;;
2656;SDS011;1338;48.176;11.792;2023-04-03T09:41:57;8.70;;;8.00;;
2656;SDS011;1338;48.176;11.792;2023-04-03T09:44:30;7.73;;;7.10;;
2656;SDS011;1338;48.176;11.792;2023-04-03T09:46:59;8.60;;;7.80;;
2656;SDS011;1338;48.176;11.792;2023-04-03T09:49:45;7.90;;;7.20;;
2656;SDS011;1338;48.176;11.792;2023-04-03T09:52:21;8.20;;;7.50;;
2656;SDS011;1338;48.176;11.792;2023-04-03T09:54:51;8.20;;;7.50;;
2656;SDS011;1338;48.176;11.792;2023-04-03T09:57:19;9.43;;;7.50;;
2656;SDS011;1338;48.176;11.792;2023-04-03T09:59:56;8.50;;;7.57;;
2656;SDS011;1338;48.176;11.792;2023-04-03T10:02:34;8.10;;;7.40;;
2656;SDS011;1338;48.176;11.792;2023-04-03T10:05:03;7.50;;;6.80;;
2656;SDS011;1338;48.176;11.792;2023-04-03T10:07:52;7.57;;;6.80;;
2656;SDS011;1338;48.176;11.792;2023-04-03T10:10:36;7.40;;;6.80;;
2656;SDS011;1338;48.176;11.792;2023-04-03T10:13:06;7.90;;;7.10;;
2656;SDS011;1338;48.176;11.792;2023-04-03T10:15:48;7.20;;;6.33;;
2656;SDS011;1338;48.176;11.792;2023-04-03T10:18:27;8.40;;;7.47;;
2656;SDS011;1338;48.176;11.792;2023-04-03T10:21:02;6.37;;;5.77;;
2656;SDS011;1338;48.176;11.792;2023-04-03T10:23:47;9.57;;;6.57;;
2656;SDS011;1338;48.176;11.792;2023-04-03T10:26:23;7.83;;;6.93;;
2656;SDS011;1338;48.176;11.792;2023-04-03T10:29:01;8.20;;;7.50;;
2656;SDS011;1338;48.176;11.792;2023-04-03T10:31:39;7.97;;;7.17;;
2656;SDS011;1338;48.176;11.792;2023-04-03T10:34:13;7.40;;;6.70;;
2656;SDS011;1338;48.176;11.792;2023-04-03T10:36:50;7.30;;;6.80;;
2656;SDS011;1338;48.176;11.792;2023-04-03T10:39:27;7.67;;;6.97;;
2656;SDS011;1338;48.176;11.792;2023-04-03T10:42:04;6.70;;;6.10;;
2656;SDS011;1338;48.176;11.792;2023-04-03T10:44:49;6.77;;;6.27;;
2656;SDS011;1338;48.176;11.792;2023-04-03T10:47:30;7.03;;;6.30;;
2656;SDS011;1338;48.176;11.792;2023-04-03T10:50:10;6.93;;;6.20;;
2656;SDS011;1338;48.176;11.792;2023-04-03T10:52:52;6.40;;;5.80;;
2656;SDS011;1338;48.176;11.792;2023-04-03T10:55:31;5.50;;;5.10;;
2656;SDS011;1338;48.176;11.792;2023-04-03T10:58:06;6.00;;;5.47;;
2656;SDS011;1338;48.176;11.792;2023-04-03T11:00:41;6.23;;;5.70;;
2656;SDS011;1338;48.176;11.792;2023-04-03T11:03:14;5.80;;;5.30;;
2656;SDS011;1338;48.176;11.792;2023-04-03T11:05:53;5.30;;;4.67;;
2656;SDS011;1338;48.176;11.792;2023-04-03T11:08:24;5.27;;;4.77;;
2656;SDS011;1338;48.176;11.792;2023-04-03T11:10:57;6.30;;;5.70;;
2656;SDS011;1338;48.176;11.792;2023-04-03T11:13:31;5.80;;;5.27;;
2656;SDS011;1338;48.176;11.792;2023-04-03T11:16:03;6.17;;;5.57;;
2656;SDS011;1338;48.176;11.792;2023-04-03T11:18:37;5.23;;;4.53;;
2656;SDS011;1338;48.176;11.792;2023-04-03T11:21:10;5.13;;;4.70;;
2656;SDS011;1338;48.176;11.792;2023-04-03T11:23:44;7.83;;;5.40;;
2656;SDS011;1338;48.176;11.792;2023-04-03T11:26:17;5.23;;;4.57;;
2656;SDS011;1338;48.176;11.792;2023-04-03T11:28:52;4.90;;;4.47;;
2656;SDS011;1338;48.176;11.792;2023-04-03T11:31:26;5.07;;;4.67;;
2656;SDS011;1338;48.176;11.792;2023-04-03T11:34:11;4.50;;;4.10;;
2656;SDS011;1338;48.176;11.792;2023-04-03T11:36:52;5.23;;;4.73;;
2656;SDS011;1338;48.176;11.792;2023-04-03T11:39:24;4.10;;;3.80;;
2656;SDS011;1338;48.176;11.792;2023-04-03T11:41:56;3.90;;;3.50;;
2656;SDS011;1338;48.176;11.792;2023-04-03T11:44:42;5.27;;;4.33;;
2656;SDS011;1338;48.176;11.792;2023-04-03T11:47:11;4.53;;;3.97;;
2656;SDS011;1338;48.176;11.792;2023-04-03T11:49:57;4.60;;;4.00;;
2656;SDS011;1338;48.176;11.792;2023-04-03T11:52:54;5.20;;;3.90;;
2656;SDS011;1338;48.176;11.792;2023-04-03T11:58:22;4.10;;;3.70;;
2656;SDS011;1338;48.176;11.792;2023-04-03T12:00:53;5.63;;;4.03;;
2656;SDS011;1338;48.176;11.792;2023-04-03T12:03:30;4.43;;;4.03;;
2656;SDS011;1338;48.176;11.792;2023-04-03T12:09:23;3.57;;;3.13;;
2656;SDS011;1338;48.176;11.792;2023-04-03T12:11:58;4.17;;;3.87;;
2656;SDS011;1338;48.176;11.792;2023-04-03T12:14:28;4.30;;;3.93;;
2656;SDS011;1338;48.176;11.792;2023-04-03T12:16:56;3.77;;;3.47;;
2656;SDS011;1338;48.176;11.792;2023-04-03T12:19:30;3.23;;;2.97;;
2656;SDS011;1338;48.176;11.792;2023-04-03T12:22:17;4.03;;;3.73;;
2656;SDS011;1338;48.176;11.792;2023-04-03T12:24:47;3.67;;;3.37;;
2656;SDS011;1338;48.176;11.792;2023-04-03T12:30:07;4.53;;;3.40;;
2656;SDS011;1338;48.176;11.792;2023-04-03T12:32:51;3.27;;;2.97;;
2656;SDS011;1338;48.176;11.792;2023-04-03T12:35:39;5.07;;;3.03;;
2656;SDS011;1338;48.176;11.792;2023-04-03T12:38:17;3.57;;;3.27;;
2656;SDS011;1338;48.176;11.792;2023-04-03T12:41:04;3.90;;;3.53;;
2656;SDS011;1338;48.176;11.792;2023-04-03T12:43:56;3.30;;;3.00;;
2656;SDS011;1338;48.176;11.792;2023-04-03T12:46:36;3.70;;;3.40;;
2656;SDS011;1338;48.176;11.792;2023-04-03T12:49:12;3.97;;;3.17;;
2656;SDS011;1338;48.176;11.792;2023-04-03T12:51:50;3.60;;;3.30;;
2656;SDS011;1338;48.176;11.792;2023-04-03T12:54:22;3.83;;;3.43;;
2656;SDS011;1338;48.176;11.792;2023-04-03T12:57:08;3.60;;;3.30;;
2656;SDS011;1338;48.176;11.792;2023-04-03T12:59:37;3.77;;;3.47;;
2656;SDS011;1338;48.176;11.792;2023-04-03T13:02:10;3.73;;;3.43;;
2656;SDS011;1338;48.176;11.792;2023-04-03T13:04:52;5.30;;;4.90;;
2656;SDS011;1338;48.176;11.792;2023-04-03T13:07:25;3.27;;;3.03;;
2656;SDS011;1338;48.176;11.792;2023-04-03T13:10:00;4.73;;;3.10;;
2656;SDS011;1338;48.176;11.792;2023-04-03T13:12:31;3.90;;;3.60;;
2656;SDS011;1338;48.176;11.792;2023-04-03T13:15:01;3.73;;;3.40;;
2656;SDS011;1338;48.176;11.792;2023-04-03T13:17:39;3.47;;;3.27;;
2656;SDS011;1338;48.176;11.792;2023-04-03T13:20:10;3.40;;;3.10;;
2656;SDS011;1338;48.176;11.792;2023-04-03T13:22:43;3.47;;;3.17;;
2656;SDS011;1338;48.176;11.792;2023-04-03T13:25:21;3.70;;;3.37;;
2656;SDS011;1338;48.176;11.792;2023-04-03T13:27:51;3.73;;;3.47;;
2656;SDS011;1338;48.176;11.792;2023-04-03T13:30:38;3.10;;;2.90;;
2656;SDS011;1338;48.176;11.792;2023-04-03T13:33:19;3.10;;;2.90;;
2656;SDS011;1338;48.176;11.792;2023-04-03T13:35:54;3.80;;;2.97;;
2656;SDS011;1338;48.176;11.792;2023-04-03T13:38:24;3.90;;;3.40;;
2656;SDS011;1338;48.176;11.792;2023-04-03T13:40:57;3.90;;;3.10;;
2656;SDS011;1338;48.176;11.792;2023-04-03T13:43:29;3.60;;;3.30;;
2656;SDS011;1338;48.176;11.792;2023-04-03T13:46:00;5.20;;;3.00;;
2656;SDS011;1338;48.176;11.792;2023-04-03T13:48:36;3.13;;;2.90;;
2656;SDS011;1338;48.176;11.792;2023-04-03T13:51:16;2.90;;;2.70;;
2656;SDS011;1338;48.176;11.792;2023-04-03T13:53:49;3.50;;;3.20;;
2656;SDS011;1338;48.176;11.792;2023-04-03T13:56:23;2.57;;;2.37;;
2656;SDS011;1338;48.176;11.792;2023-04-03T13:58:56;3.33;;;2.70;;
2656;SDS011;1338;48.176;11.792;2023-04-03T14:01:32;3.77;;;2.90;;
2656;SDS011;1338;48.176;11.792;2023-04-03T14:04:11;3.47;;;3.17;;
2656;SDS011;1338;48.176;11.792;2023-04-03T14:06:44;3.13;;;2.83;;
2656;SDS011;1338;48.176;11.792;2023-04-03T14:09:13;4.47;;;3.00;;
2656;SDS011;1338;48.176;11.792;2023-04-03T14:11:44;3.33;;;3.03;;
2656;SDS011;1338;48.176;11.792;2023-04-03T14:14:14;3.23;;;2.93;;
2656;SDS011;1338;48.176;11.792;2023-04-03T14:16:45;3.03;;;2.70;;
2656;SDS011;1338;48.176;11.792;2023-04-03T14:19:17;2.90;;;2.70;;
2656;SDS011;1338;48.176;11.792;2023-04-03T14:21:48;3.00;;;2.80;;
2656;SDS011;1338;48.176;11.792;2023-04-03T14:24:18;3.27;;;2.97;;
2656;SDS011;1338;48.176;11.792;2023-04-03T14:26:50;3.00;;;2.80;;
2656;SDS011;1338;48.176;11.792;2023-04-03T14:29:19;2.63;;;2.43;;
2656;SDS011;1338;48.176;11.792;2023-04-03T14:31:49;3.43;;;3.13;;
2656;SDS011;1338;48.176;11.792;2023-04-03T14:34:37;2.93;;;2.63;;
2656;SDS011;1338;48.176;11.792;2023-04-03T14:37:05;3.00;;;2.80;;
2656;SDS011;1338;48.176;11.792;2023-04-03T14:39:36;3.77;;;2.70;;
2656;SDS011;1338;48.176;11.792;2023-04-03T14:42:11;2.83;;;2.63;;
2656;SDS011;1338;48.176;11.792;2023-04-03T14:44:41;2.47;;;2.30;;
2656;SDS011;1338;48.176;11.792;2023-04-03T14:47:12;2.87;;;2.57;;
2656;SDS011;1338;48.176;11.792;2023-04-03T14:49:57;3.23;;;2.90;;
2656;SDS011;1338;48.176;11.792;2023-04-03T14:52:26;2.60;;;2.40;;
2656;SDS011;1338;48.176;11.792;2023-04-03T14:54:57;3.90;;;3.60;;
2656;SDS011;1338;48.176;11.792;2023-04-03T14:57:28;3.43;;;3.13;;
2656;SDS011;1338;48.176;11.792;2023-04-03T14:59:57;4.13;;;2.90;;
2656;SDS011;1338;48.176;11.792;2023-04-03T15:02:28;4.63;;;3.10;;
2656;SDS011;1338;48.176;11.792;2023-04-03T15:04:58;4.00;;;3.30;;
2656;SDS011;1338;48.176;11.792;2023-04-03T15:07:31;2.60;;;2.40;;
2656;SDS011;1338;48.176;11.792;2023-04-03T15:10:02;2.90;;;2.60;;
2656;SDS011;1338;48.176;11.792;2023-04-03T15:12:42;2.53;;;2.33;;
2656;SDS011;1338;48.176;11.792;2023-04-03T15:15:11;4.13;;;2.97;;
2656;SDS011;1338;48.176;11.792;2023-04-03T15:17:40;2.80;;;2.60;;
2656;SDS011;1338;48.176;11.792;2023-04-03T15:20:12;2.60;;;2.40;;
2656;SDS011;1338;48.176;11.792;2023-04-03T15:22:42;3.20;;;2.87;;
2656;SDS011;1338;48.176;11.792;2023-04-03T15:25:10;3.30;;;2.70;;
2656;SDS011;1338;48.176;11.792;2023-04-03T15:27:42;2.60;;;2.40;;
2656;SDS011;1338;48.176;11.792;2023-04-03T15:30:11;2.77;;;2.57;;
2656;SDS011;1338;48.176;11.792;2023-04-03T15:32:43;3.13;;;2.80;;
2656;SDS011;1338;48.176;11.792;2023-04-03T15:35:11;3.00;;;2.50;;
2656;SDS011;1338;48.176;11.792;2023-04-03T15:37:40;2.40;;;2.20;;
2656;SDS011;1338;48.176;11.792;2023-04-03T15:40:09;2.83;;;2.63;;